createdAt,value
2023-02-14T00:00:49.478Z,-16.62
2023-02-14T00:05:52.366Z,-16.69
2023-02-14T00:10:55.044Z,-16.78
2023-02-14T00:15:57.794Z,-16.88
2023-02-14T00:21:01.068Z,-16.92
2023-02-14T00:26:03.952Z,-17.01
2023-02-14T00:31:06.770Z,-17.06
2023-02-14T00:36:10.763Z,-17.09
2023-02-14T00:41:19.555Z,-17.14
2023-02-14T00:46:23.296Z,-17.16
2023-02-14T00:51:26.231Z,-17.20
2023-02-14T00:56:29.039Z,-17.28
2023-02-14T01:01:31.761Z,-17.21
2023-02-14T01:06:35.099Z,-17.21
2023-02-14T01:11:37.677Z,-17.20
2023-02-14T01:16:40.477Z,-17.32
2023-02-14T01:21:43.272Z,-17.40
2023-02-14T01:26:45.949Z,-17.76
2023-02-14T01:31:49.605Z,-17.62
2023-02-14T01:36:53.213Z,-17.72
2023-02-14T01:41:56.983Z,-17.71
2023-02-14T01:47:01.508Z,-17.72
2023-02-14T01:52:12.940Z,-18.03
2023-02-14T01:57:18.316Z,-17.83
2023-02-14T02:02:24.190Z,-17.83
2023-02-14T02:07:27.840Z,-17.89
2023-02-14T02:12:36.021Z,-17.92
2023-02-14T02:17:53.727Z,-17.98
2023-02-14T02:23:29.120Z,-17.94
2023-02-14T02:29:08.803Z,-17.94
2023-02-14T02:34:39.052Z,-17.98
2023-02-14T02:40:19.895Z,-18.00
2023-02-14T02:46:10.041Z,-18.05
2023-02-14T02:51:37.140Z,-18.03
2023-02-14T02:56:47.476Z,-17.99
2023-02-14T03:02:07.463Z,-17.99
2023-02-14T03:07:28.727Z,-18.17
2023-02-14T03:12:34.419Z,-17.93
2023-02-14T03:18:08.582Z,-17.90
2023-02-14T03:23:32.332Z,-17.88
2023-02-14T03:28:48.286Z,-17.83
2023-02-14T03:33:58.629Z,-17.82
2023-02-14T03:39:08.805Z,-17.77
2023-02-14T03:44:13.787Z,-17.73
2023-02-14T03:49:20.689Z,-17.73
2023-02-14T03:54:25.077Z,-17.61
2023-02-14T03:59:29.258Z,-17.59
2023-02-14T04:04:36.235Z,-17.49
2023-02-14T04:09:38.923Z,-17.40
2023-02-14T04:14:41.699Z,-17.35
2023-02-14T04:19:44.370Z,-17.22
2023-02-14T04:24:47.191Z,-17.24
2023-02-14T04:29:50.566Z,-17.29
2023-02-14T04:34:53.850Z,-17.33
2023-02-14T04:39:56.533Z,-17.33
2023-02-14T04:44:59.347Z,-17.07
2023-02-14T04:50:02.118Z,-17.08
2023-02-14T04:55:06.063Z,-16.93
2023-02-14T05:00:09.484Z,-16.91
2023-02-14T05:05:12.282Z,-16.79
2023-02-14T05:10:15.324Z,-16.67
2023-02-14T05:15:18.074Z,-16.52
2023-02-14T05:20:21.032Z,-16.41
2023-02-14T05:25:23.743Z,-16.34
2023-02-14T05:30:28.393Z,-16.31
2023-02-14T05:35:32.389Z,-16.26
2023-02-14T05:40:35.200Z,-16.11
2023-02-14T05:45:38.116Z,-16.07
2023-02-14T05:50:42.225Z,-15.94
2023-02-14T05:55:44.995Z,-15.83
2023-02-14T06:00:47.698Z,-15.68
2023-02-14T06:05:50.543Z,-15.59
2023-02-14T06:10:53.251Z,-15.51
2023-02-14T06:15:55.945Z,-15.46
2023-02-14T06:20:59.152Z,-15.45
2023-02-14T06:26:01.998Z,-15.35
2023-02-14T06:31:04.997Z,-15.21
2023-02-14T06:36:08.073Z,-15.14
2023-02-14T06:41:12.067Z,-15.04
2023-02-14T06:46:15.911Z,-15.02
2023-02-14T06:51:18.804Z,-14.96
2023-02-14T06:56:21.557Z,-14.86
2023-02-14T07:01:24.347Z,-14.73
2023-02-14T07:06:27.131Z,-14.66
2023-02-14T07:11:29.823Z,-14.58
2023-02-14T07:16:32.551Z,-14.49
2023-02-14T07:21:35.445Z,-14.36
2023-02-14T07:26:38.159Z,-14.22
2023-02-14T07:31:41.110Z,-14.03
2023-02-14T07:36:44.565Z,-13.98
2023-02-14T07:41:47.213Z,-13.91
2023-02-14T07:46:54.489Z,-13.86
2023-02-14T07:51:57.214Z,-13.79
2023-02-14T07:56:59.981Z,-13.74
2023-02-14T08:02:02.675Z,-13.57
2023-02-14T08:07:05.356Z,-13.48
2023-02-14T08:12:26.307Z,-13.37
2023-02-14T08:17:28.977Z,-13.33
2023-02-14T08:22:32.035Z,-13.24
2023-02-14T08:27:34.843Z,-13.09
2023-02-14T08:32:37.783Z,-13.30
2023-02-14T08:37:40.979Z,-13.11
2023-02-14T08:42:43.644Z,-13.35
2023-02-14T08:47:46.574Z,-13.20
2023-02-14T08:52:49.325Z,-13.26
2023-02-14T08:57:52.149Z,-13.33
2023-02-14T09:02:54.929Z,-13.35
2023-02-14T09:07:59.951Z,-13.30
2023-02-14T09:13:02.745Z,-13.29
2023-02-14T09:18:05.618Z,-13.38
2023-02-14T09:23:08.293Z,-13.33
2023-02-14T09:28:11.223Z,-13.40
2023-02-14T09:33:14.660Z,-13.39
2023-02-14T09:38:18.373Z,-13.47
2023-02-14T09:43:32.855Z,-13.44
2023-02-14T09:48:44.236Z,-13.49
2023-02-14T09:53:54.792Z,-13.60
2023-02-14T09:59:29.321Z,-13.71
2023-02-14T10:04:33.181Z,-13.70
2023-02-14T10:10:11.099Z,-13.76
2023-02-14T10:15:24.356Z,-13.90
2023-02-14T10:20:31.825Z,-14.02
2023-02-14T10:25:47.074Z,-14.22
2023-02-14T10:31:05.366Z,-14.18
2023-02-14T10:36:25.601Z,-14.35
2023-02-14T10:41:38.199Z,-14.39
2023-02-14T10:46:49.787Z,-14.53
2023-02-14T10:51:58.118Z,-14.67
2023-02-14T10:57:03.872Z,-14.80
2023-02-14T11:02:10.669Z,-14.93
2023-02-14T11:07:18.084Z,-15.10
2023-02-14T11:12:38.536Z,-15.28
2023-02-14T11:17:42.589Z,-15.45
2023-02-14T11:22:45.337Z,-15.54
2023-02-14T11:27:50.587Z,-15.78
2023-02-14T11:32:56.518Z,-15.78
2023-02-14T11:37:59.327Z,-15.84
2023-02-14T11:43:19.594Z,-15.90
2023-02-14T11:48:37.888Z,-15.95
2023-02-14T11:53:56.469Z,-16.05
2023-02-14T11:59:04.210Z,-16.35
2023-02-14T12:04:14.294Z,-16.17
2023-02-14T12:09:23.140Z,-16.22
2023-02-14T12:14:28.972Z,-16.50
2023-02-14T12:19:42.895Z,-16.27
2023-02-14T12:24:54.843Z,-16.27
2023-02-14T12:30:07.585Z,-16.37
2023-02-14T12:35:16.498Z,-16.36
2023-02-14T12:40:23.148Z,-16.39
2023-02-14T12:45:48.051Z,-16.39
2023-02-14T12:50:54.557Z,-16.45
2023-02-14T12:56:22.973Z,-16.65
2023-02-14T13:01:49.833Z,-16.58
2023-02-14T13:06:56.173Z,-16.61
2023-02-14T13:12:01.460Z,-16.66
2023-02-14T13:17:17.650Z,-16.66
2023-02-14T13:22:23.121Z,-16.68
2023-02-14T13:27:29.898Z,-16.71
2023-02-14T13:32:39.312Z,-16.85
2023-02-14T13:37:47.389Z,-16.80
2023-02-14T13:42:51.449Z,-16.81
2023-02-14T13:48:15.411Z,-17.03
2023-02-14T13:53:41.974Z,-16.88
2023-02-14T13:59:05.853Z,-17.00
2023-02-14T14:04:27.244Z,-16.97
2023-02-14T14:09:45.288Z,-16.94
2023-02-14T14:15:08.424Z,-17.01
2023-02-14T14:20:16.895Z,-17.07
2023-02-14T14:25:37.897Z,-17.09
2023-02-14T14:30:44.838Z,-17.12
2023-02-14T14:36:03.059Z,-17.10
2023-02-14T14:41:06.190Z,-17.23
2023-02-14T14:46:12.001Z,-17.38
2023-02-14T14:51:34.940Z,-17.33
2023-02-14T14:56:45.152Z,-17.30
2023-02-14T15:01:51.765Z,-17.28
2023-02-14T15:06:56.831Z,-17.34
2023-02-14T15:12:19.975Z,-17.31
2023-02-14T15:17:26.439Z,-17.36
2023-02-14T15:22:34.587Z,-17.42
2023-02-14T15:27:41.072Z,-17.46
2023-02-14T15:32:43.962Z,-17.45
2023-02-14T15:37:47.400Z,-17.45
2023-02-14T15:42:51.027Z,-17.48
2023-02-14T15:47:59.620Z,-17.47
2023-02-14T15:53:20.767Z,-17.52
2023-02-14T15:58:27.130Z,-17.52
2023-02-14T16:03:34.223Z,-17.56
2023-02-14T16:08:39.038Z,-17.66
2023-02-14T16:13:46.665Z,-17.64
2023-02-14T16:18:52.508Z,-17.70
2023-02-14T16:24:11.147Z,-17.77
2023-02-14T16:29:18.086Z,-17.81
2023-02-14T16:34:21.054Z,-17.83
2023-02-14T16:39:25.440Z,-17.95
2023-02-14T16:44:28.193Z,-17.93
2023-02-14T16:49:30.805Z,-17.93
2023-02-14T16:54:33.515Z,-18.11
2023-02-14T16:59:36.429Z,-17.96
2023-02-14T17:04:39.114Z,-17.97
2023-02-14T17:09:45.210Z,-17.98
2023-02-14T17:14:50.445Z,-18.00
2023-02-14T17:19:53.373Z,-17.94
2023-02-14T17:24:57.178Z,-18.14
2023-02-14T17:30:01.583Z,-18.07
2023-02-14T17:35:09.179Z,-18.08
2023-02-14T17:40:13.312Z,-18.16
2023-02-14T17:45:16.008Z,-18.27
2023-02-14T17:50:18.843Z,-18.38
2023-02-14T17:55:21.671Z,-18.42
2023-02-14T18:00:24.743Z,-18.50
2023-02-14T18:05:27.303Z,-18.56
2023-02-14T18:10:30.434Z,-18.61
2023-02-14T18:15:33.828Z,-18.67
2023-02-14T18:20:36.537Z,-18.67
2023-02-14T18:25:39.369Z,-18.83
2023-02-14T18:30:42.118Z,-18.87
2023-02-14T18:35:45.312Z,-18.98
2023-02-14T18:40:47.992Z,-19.09
2023-02-14T18:45:50.761Z,-19.16
2023-02-14T18:50:53.774Z,-19.31
2023-02-14T18:55:56.584Z,-19.49
2023-02-14T19:00:59.674Z,-19.65
2023-02-14T19:06:02.415Z,-19.91
2023-02-14T19:11:10.362Z,-19.93
2023-02-14T19:16:16.019Z,-20.05
2023-02-14T19:21:22.211Z,-20.12
2023-02-14T19:26:38.019Z,-20.23
2023-02-14T19:31:45.413Z,-20.26
2023-02-14T19:36:49.122Z,-20.26
2023-02-14T19:41:52.348Z,-20.45
2023-02-14T19:46:56.821Z,-20.40
2023-02-14T19:52:00.051Z,-20.43
2023-02-14T19:57:02.920Z,-20.49
2023-02-14T20:02:05.632Z,-20.45
2023-02-14T20:07:08.781Z,-20.47
2023-02-14T20:12:11.785Z,-20.51
2023-02-14T20:17:15.330Z,-20.56
2023-02-14T20:22:18.365Z,-20.61
2023-02-14T20:27:21.276Z,-20.64
2023-02-14T20:32:24.017Z,-20.62
2023-02-14T20:37:26.724Z,-20.86
2023-02-14T20:42:29.387Z,-20.81
2023-02-14T20:47:32.071Z,-20.77
2023-02-14T20:52:37.041Z,-20.81
2023-02-14T20:57:39.749Z,-20.83
2023-02-14T21:02:45.557Z,-21.03
2023-02-14T21:07:48.362Z,-20.93
2023-02-14T21:12:53.151Z,-21.02
2023-02-14T21:17:55.833Z,-20.78
2023-02-14T21:22:58.493Z,-20.76
2023-02-14T21:28:01.218Z,-20.86
2023-02-14T21:33:04.430Z,-20.92
2023-02-14T21:38:07.354Z,-21.22
2023-02-14T21:43:10.125Z,-21.16
2023-02-14T21:48:31.057Z,-21.23
2023-02-14T21:53:33.957Z,-21.22
2023-02-14T21:58:40.302Z,-21.28
2023-02-14T22:03:43.036Z,-21.24
2023-02-14T22:08:45.889Z,-21.24
2023-02-14T22:13:48.731Z,-21.28
2023-02-14T22:18:51.994Z,-21.37
2023-02-14T22:23:56.043Z,-21.47
2023-02-14T22:29:00.713Z,-21.58
2023-02-14T22:34:05.304Z,-21.60
2023-02-14T22:39:08.121Z,-21.58
2023-02-14T22:44:11.268Z,-21.61
2023-02-14T22:49:14.385Z,-21.68
2023-02-14T22:54:17.269Z,-21.74
2023-02-14T22:59:24.727Z,-21.83
2023-02-14T23:04:29.994Z,-21.91
2023-02-14T23:09:32.717Z,-21.97
2023-02-14T23:14:54.259Z,-21.91
2023-02-14T23:20:15.471Z,-21.92
2023-02-14T23:25:18.183Z,-22.03
2023-02-14T23:30:21.148Z,-22.08
2023-02-14T23:35:23.981Z,-22.12
2023-02-14T23:40:26.638Z,-22.16
2023-02-14T23:45:35.047Z,-22.23
2023-02-14T23:50:38.638Z,-22.27
2023-02-14T23:55:41.266Z,-22.27
